Time;durP1;ratioP1;P1;durP2;ratioP2;P2;SDS_P1;SDS_P2;PMS_P1;PMS_P2;Temp;Humidity;BMP_temperature;BMP_pressure;BME280_temperature;BME280_humidity;BME280_pressure;Samples;Min_cycle;Max_cycle;Signal;HPM_P1;HPM_P2
2023/12/31 00:01:24;;;;;;;4.27;1.73;;;8.40;99.90;;;;;;5095662;28;20507;-49
2023/12/31 00:03:50;;;;;;;4.40;1.52;;;8.40;99.90;;;;;;5094608;28;20490;-51
2023/12/31 00:06:16;;;;;;;4.20;1.67;;;8.40;99.90;;;;;;5095426;28;20051;-52
2023/12/31 00:08:41;;;;;;;5.40;1.73;;;8.40;99.90;;;;;;5095399;28;20120;-50
2023/12/31 00:11:09;;;;;;;4.00;1.37;;;8.50;99.90;;;;;;5094757;28;20044;-50
2023/12/31 00:13:35;;;;;;;4.72;1.42;;;8.50;99.90;;;;;;5095477;28;20123;-52
2023/12/31 00:16:01;;;;;;;3.03;1.40;;;8.40;99.90;;;;;;5095486;28;20083;-52
2023/12/31 00:18:27;;;;;;;3.17;1.30;;;8.40;99.90;;;;;;5095623;28;20036;-51
2023/12/31 00:20:52;;;;;;;4.87;1.50;;;8.40;99.90;;;;;;5095202;28;20101;-51
2023/12/31 00:23:18;;;;;;;4.77;1.70;;;8.40;99.90;;;;;;5095111;28;20463;-50
2023/12/31 00:25:44;;;;;;;3.20;1.20;;;8.40;99.90;;;;;;5095300;28;20119;-49
2023/12/31 00:28:09;;;;;;;3.37;1.20;;;8.40;99.90;;;;;;5095221;28;20060;-52
2023/12/31 00:30:35;;;;;;;4.20;1.13;;;8.40;99.90;;;;;;5095221;28;20426;-49
2023/12/31 00:33:01;;;;;;;3.43;1.40;;;8.40;99.90;;;;;;5094970;28;20448;-53
2023/12/31 00:35:26;;;;;;;5.57;1.50;;;8.40;99.90;;;;;;5094946;28;20087;-50
2023/12/31 00:37:52;;;;;;;3.70;1.10;;;8.40;99.90;;;;;;5094786;28;20074;-50
2023/12/31 00:40:18;;;;;;;2.80;1.10;;;8.40;99.90;;;;;;5094941;28;20499;-49
2023/12/31 00:42:43;;;;;;;3.67;1.27;;;8.50;99.90;;;;;;5094889;28;20492;-52
2023/12/31 00:45:09;;;;;;;4.70;1.27;;;8.50;99.90;;;;;;5094834;28;20055;-52
2023/12/31 00:47:35;;;;;;;5.07;1.10;;;8.40;99.90;;;;;;5093941;28;20052;-49
2023/12/31 00:50:00;;;;;;;3.83;1.10;;;8.40;99.90;;;;;;5094697;28;20044;-49
2023/12/31 00:52:26;;;;;;;2.37;1.00;;;8.50;99.90;;;;;;5094520;28;20509;-49
2023/12/31 00:54:52;;;;;;;4.20;1.30;;;8.50;99.90;;;;;;5095017;28;20123;-49
2023/12/31 00:57:18;;;;;;;3.88;1.25;;;8.50;99.90;;;;;;5094935;28;20411;-51
2023/12/31 00:59:44;;;;;;;3.58;1.10;;;8.50;99.90;;;;;;5094567;28;20044;-53
2023/12/31 01:02:10;;;;;;;3.60;1.20;;;8.50;99.90;;;;;;5094334;28;20083;-53
2023/12/31 01:04:36;;;;;;;2.77;1.17;;;8.50;99.90;;;;;;5094463;28;20043;-51
2023/12/31 01:07:02;;;;;;;3.92;1.27;;;8.50;99.90;;;;;;5094125;28;20048;-53
2023/12/31 01:09:28;;;;;;;2.40;1.10;;;8.50;99.90;;;;;;5094498;28;20036;-50
2023/12/31 01:11:53;;;;;;;3.33;1.10;;;8.50;99.90;;;;;;5093372;28;20047;-53
2023/12/31 01:14:19;;;;;;;3.60;1.33;;;8.50;99.90;;;;;;5094242;28;20101;-53
2023/12/31 01:16:45;;;;;;;2.53;1.20;;;8.40;99.90;;;;;;5094001;28;20101;-49
2023/12/31 01:19:11;;;;;;;3.27;1.07;;;8.40;99.90;;;;;;5094147;28;20036;-50
2023/12/31 01:21:36;;;;;;;5.03;1.40;;;8.40;99.90;;;;;;5094085;28;20044;-52
2023/12/31 01:24:03;;;;;;;4.00;1.37;;;8.40;99.90;;;;;;5094149;28;20120;-52
2023/12/31 01:26:28;;;;;;;4.20;1.15;;;8.40;99.90;;;;;;5094160;28;20091;-52
2023/12/31 01:28:54;;;;;;;2.27;0.90;;;8.40;99.90;;;;;;5093716;28;20152;-52
2023/12/31 01:31:20;;;;;;;3.40;0.93;;;8.40;99.90;;;;;;5093934;28;20043;-52
2023/12/31 01:33:46;;;;;;;4.10;1.25;;;8.40;99.90;;;;;;5092973;28;20136;-51
2023/12/31 01:36:20;;;;;;;3.37;0.80;;;8.40;99.90;;;;;;5092864;28;20087;-50
2023/12/31 01:38:46;;;;;;;2.40;1.00;;;8.40;99.90;;;;;;5093944;28;20036;-51
2023/12/31 01:41:12;;;;;;;2.37;1.00;;;8.40;99.90;;;;;;5093879;28;20486;-49
2023/12/31 01:43:37;;;;;;;3.00;1.10;;;8.40;99.90;;;;;;5093900;28;20109;-50
2023/12/31 01:46:05;;;;;;;2.77;0.90;;;8.40;99.90;;;;;;5075929;28;20383;-50
2023/12/31 01:48:32;;;;;;;4.22;1.15;;;8.30;99.90;;;;;;5093812;28;20664;-53
2023/12/31 01:50:58;;;;;;;1.83;0.80;;;8.30;99.90;;;;;;5093683;28;20044;-50
2023/12/31 01:53:25;;;;;;;1.97;0.70;;;8.30;99.90;;;;;;5093746;28;20052;-52
2023/12/31 01:55:51;;;;;;;3.03;1.05;;;8.30;99.90;;;;;;5092542;28;20048;-51
2023/12/31 01:58:18;;;;;;;3.17;1.00;;;8.30;99.90;;;;;;5093426;28;20529;-54
2023/12/31 02:00:43;;;;;;;1.67;0.70;;;8.30;99.90;;;;;;5093545;28;20056;-53
2023/12/31 02:03:10;;;;;;;1.70;0.70;;;8.30;99.90;;;;;;5093620;28;20058;-49
2023/12/31 02:05:35;;;;;;;2.05;0.90;;;8.20;99.90;;;;;;5093322;28;20044;-50
2023/12/31 02:08:01;;;;;;;2.40;0.90;;;8.20;99.90;;;;;;5093545;28;20453;-52
2023/12/31 02:10:27;;;;;;;2.50;0.90;;;8.20;99.90;;;;;;5092928;28;20048;-51
2023/12/31 02:12:55;;;;;;;2.08;0.80;;;8.20;99.90;;;;;;5093559;28;20074;-50
2023/12/31 02:15:31;;;;;;;4.05;1.00;;;8.10;99.90;;;;;;5093303;28;20040;-51
2023/12/31 02:17:59;;;;;;;2.22;0.73;;;8.00;99.90;;;;;;5092370;28;20140;-51
2023/12/31 02:20:26;;;;;;;2.67;0.90;;;8.00;99.90;;;;;;5093204;28;20471;-53
2023/12/31 02:22:52;;;;;;;3.47;1.10;;;8.00;99.90;;;;;;5093269;28;20051;-53
2023/12/31 02:25:22;;;;;;;3.13;0.95;;;7.90;99.90;;;;;;5093382;28;20048;-53
2023/12/31 02:27:48;;;;;;;2.85;0.98;;;7.90;99.90;;;;;;5093042;28;20156;-52
2023/12/31 02:30:13;;;;;;;3.83;1.33;;;7.90;99.90;;;;;;5093151;28;20126;-53
2023/12/31 02:32:39;;;;;;;3.17;1.57;;;7.80;99.90;;;;;;5092969;28;20052;-53
2023/12/31 02:35:05;;;;;;;4.23;1.60;;;7.80;99.90;;;;;;5092312;28;20054;-52
2023/12/31 02:37:31;;;;;;;3.67;1.58;;;7.80;99.90;;;;;;5093313;28;20126;-53
2023/12/31 02:39:57;;;;;;;3.60;1.57;;;7.80;99.90;;;;;;5093256;28;20130;-53
2023/12/31 02:42:22;;;;;;;4.17;1.63;;;7.80;99.90;;;;;;5093054;28;20123;-51
2023/12/31 02:44:48;;;;;;;5.77;2.20;;;7.80;99.90;;;;;;5093151;28;20391;-52
2023/12/31 02:47:14;;;;;;;4.00;1.43;;;7.70;99.90;;;;;;5092974;28;20407;-52
2023/12/31 02:49:40;;;;;;;3.13;1.20;;;7.70;99.90;;;;;;5091923;28;20126;-53
2023/12/31 02:52:06;;;;;;;4.63;1.30;;;7.80;99.90;;;;;;5092176;28;20048;-49
2023/12/31 02:54:31;;;;;;;5.20;1.43;;;7.80;99.90;;;;;;5093137;28;20106;-53
2023/12/31 02:56:57;;;;;;;4.93;1.67;;;7.70;99.90;;;;;;5093115;28;20044;-52
2023/12/31 02:59:23;;;;;;;4.10;1.38;;;7.70;99.90;;;;;;5093057;28;20048;-51
2023/12/31 03:01:51;;;;;;;3.63;1.70;;;7.70;99.90;;;;;;5092836;28;20462;-53
2023/12/31 03:04:17;;;;;;;3.65;1.35;;;7.70;99.90;;;;;;5092792;28;20509;-52
2023/12/31 03:06:42;;;;;;;4.00;1.63;;;7.70;99.90;;;;;;5092907;28;20044;-50
2023/12/31 03:09:09;;;;;;;3.43;1.50;;;7.70;99.90;;;;;;5092953;28;20044;-53
2023/12/31 03:11:35;;;;;;;4.63;1.50;;;7.70;99.90;;;;;;5095251;28;20085;-50
2023/12/31 03:14:01;;;;;;;3.47;1.23;;;7.70;99.90;;;;;;5096633;28;20133;-52
2023/12/31 03:16:26;;;;;;;4.40;1.43;;;7.60;99.90;;;;;;5096537;28;20055;-51
2023/12/31 03:18:53;;;;;;;6.03;1.67;;;7.70;99.90;;;;;;5096559;28;20123;-52
2023/12/31 03:21:18;;;;;;;4.57;1.38;;;7.60;99.90;;;;;;5096484;28;20043;-52
2023/12/31 03:23:44;;;;;;;4.17;1.77;;;7.70;99.90;;;;;;5095572;28;20055;-52
2023/12/31 03:26:10;;;;;;;4.63;1.20;;;7.70;99.90;;;;;;5096327;28;20471;-53
2023/12/31 03:28:36;;;;;;;2.77;1.20;;;7.70;99.90;;;;;;5096004;28;20063;-53
2023/12/31 03:31:03;;;;;;;4.00;1.30;;;7.70;99.90;;;;;;5096143;28;20052;-52
2023/12/31 03:33:29;;;;;;;2.45;1.10;;;7.70;99.90;;;;;;5096299;28;20193;-51
2023/12/31 03:35:55;;;;;;;2.67;0.90;;;7.60;99.90;;;;;;5096680;28;20101;-53
2023/12/31 03:38:21;;;;;;;3.30;1.10;;;7.60;99.90;;;;;;5096478;28;20426;-53
2023/12/31 03:40:46;;;;;;;1.93;0.77;;;7.60;99.90;;;;;;5096294;28;20044;-52
2023/12/31 03:43:12;;;;;;;4.43;1.33;;;7.60;99.90;;;;;;5095097;28;20040;-53
2023/12/31 03:45:38;;;;;;;3.57;1.07;;;7.60;99.90;;;;;;5095893;28;20044;-51
2023/12/31 03:48:04;;;;;;;2.73;0.80;;;7.70;99.90;;;;;;5094816;28;20098;-52
2023/12/31 03:50:30;;;;;;;2.55;0.90;;;7.70;99.90;;;;;;5094944;28;20138;-54
2023/12/31 03:52:56;;;;;;;2.67;0.90;;;7.60;99.90;;;;;;5096036;28;20056;-52
2023/12/31 03:55:22;;;;;;;3.37;1.03;;;7.70;99.90;;;;;;5095646;28;20357;-53
2023/12/31 03:57:48;;;;;;;2.78;1.02;;;7.70;99.90;;;;;;5095878;28;20114;-53
2023/12/31 04:00:14;;;;;;;3.77;1.10;;;7.70;99.90;;;;;;5095518;28;20052;-53
2023/12/31 04:02:39;;;;;;;2.43;1.23;;;7.70;99.90;;;;;;5096044;28;20040;-53
2023/12/31 04:05:06;;;;;;;2.67;1.00;;;7.70;99.90;;;;;;5095715;28;20077;-53
2023/12/31 04:07:31;;;;;;;2.00;0.80;;;7.70;99.90;;;;;;5095439;28;20387;-51
2023/12/31 04:09:57;;;;;;;2.90;0.97;;;7.70;99.90;;;;;;5095397;28;20055;-54
2023/12/31 04:12:22;;;;;;;3.17;1.20;;;7.70;99.90;;;;;;5095427;28;20040;-53
2023/12/31 04:14:48;;;;;;;2.30;0.93;;;7.70;99.90;;;;;;5095322;28;20052;-52
2023/12/31 04:17:14;;;;;;;2.00;0.73;;;7.80;99.90;;;;;;5095485;28;20055;-53
2023/12/31 04:19:39;;;;;;;6.03;0.80;;;7.80;99.90;;;;;;5095403;28;20074;-53
2023/12/31 04:22:05;;;;;;;2.50;1.00;;;7.80;99.90;;;;;;5094137;28;20109;-53
2023/12/31 04:24:31;;;;;;;3.33;0.80;;;7.80;99.90;;;;;;5095166;28;20466;-53
2023/12/31 04:26:57;;;;;;;2.03;0.77;;;7.80;99.90;;;;;;5095109;28;20044;-53
2023/12/31 04:29:23;;;;;;;2.42;1.00;;;7.80;99.90;;;;;;5095290;28;20139;-52
2023/12/31 04:31:49;;;;;;;3.35;0.82;;;7.80;99.90;;;;;;5095251;28;20131;-52
2023/12/31 04:34:14;;;;;;;2.57;1.00;;;7.80;99.90;;;;;;5095061;28;20471;-53
2023/12/31 04:36:46;;;;;;;1.97;0.80;;;7.80;99.90;;;;;;5095020;28;20043;-53
2023/12/31 04:39:12;;;;;;;2.90;0.98;;;7.80;99.90;;;;;;5094909;28;20036;-53
2023/12/31 04:41:38;;;;;;;2.90;1.05;;;7.80;99.90;;;;;;5094953;28;20070;-53
2023/12/31 04:44:04;;;;;;;3.07;0.90;;;7.80;99.90;;;;;;5094815;28;20131;-52
2023/12/31 04:46:30;;;;;;;1.83;0.90;;;7.80;99.90;;;;;;5094912;28;20123;-53
2023/12/31 04:48:56;;;;;;;3.60;1.07;;;7.80;99.90;;;;;;5094817;28;20294;-54
2023/12/31 04:51:28;;;;;;;3.42;1.10;;;7.80;99.90;;;;;;5094778;28;20088;-52
2023/12/31 04:53:55;;;;;;;2.60;1.15;;;7.80;99.90;;;;;;5094740;28;20449;-48
2023/12/31 04:56:22;;;;;;;2.80;1.02;;;7.80;99.90;;;;;;5093621;28;20486;-55
2023/12/31 04:58:54;;;;;;;3.17;1.10;;;7.80;99.90;;;;;;5094571;28;20044;-49
2023/12/31 05:01:20;;;;;;;1.65;0.73;;;7.80;99.90;;;;;;5093428;28;20181;-53
2023/12/31 05:03:46;;;;;;;3.73;0.93;;;7.80;99.90;;;;;;5094473;28;20127;-52
2023/12/31 05:06:13;;;;;;;3.05;0.93;;;7.80;99.90;;;;;;5093592;28;20044;-52
2023/12/31 05:08:43;;;;;;;3.55;1.10;;;7.80;99.90;;;;;;5094592;28;20471;-52
2023/12/31 05:11:13;;;;;;;3.40;1.33;;;7.80;99.90;;;;;;5094215;28;20048;-49
2023/12/31 05:13:39;;;;;;;2.25;0.98;;;7.80;99.90;;;;;;5094396;28;20089;-52
2023/12/31 05:16:06;;;;;;;2.83;0.93;;;7.80;99.90;;;;;;5093352;28;20048;-53
2023/12/31 05:18:32;;;;;;;;;;;7.80;99.90;;;;;;5093809;28;20181;-50
2023/12/31 05:20:59;;;;;;;3.13;1.30;;;7.80;99.90;;;;;;5094158;28;20031;-50
2023/12/31 05:23:26;;;;;;;4.93;1.25;;;7.80;99.90;;;;;;5094017;28;20093;-53
2023/12/31 05:25:51;;;;;;;3.25;1.40;;;7.80;99.90;;;;;;5093188;28;20137;-53
2023/12/31 05:28:17;;;;;;;2.90;1.10;;;7.80;99.90;;;;;;5094030;28;20498;-53
2023/12/31 05:30:43;;;;;;;4.13;1.63;;;7.80;99.90;;;;;;5094208;28;20457;-53
2023/12/31 05:33:12;;;;;;;4.03;1.00;;;7.80;99.90;;;;;;5093829;28;20399;-54
2023/12/31 05:35:37;;;;;;;2.58;0.90;;;7.80;99.90;;;;;;5093874;28;20131;-52
2023/12/31 05:38:03;;;;;;;4.27;1.30;;;7.90;99.90;;;;;;5093835;28;20170;-54
2023/12/31 05:40:29;;;;;;;2.43;1.07;;;7.90;99.90;;;;;;5093699;28;20117;-53
2023/12/31 05:42:54;;;;;;;5.03;1.20;;;7.90;99.90;;;;;;5094112;28;20048;-53
2023/12/31 05:45:20;;;;;;;5.73;1.53;;;7.90;99.90;;;;;;5094056;28;20123;-53
2023/12/31 05:47:46;;;;;;;2.77;1.20;;;7.90;99.90;;;;;;5093901;28;20369;-53
2023/12/31 05:50:13;;;;;;;2.92;1.40;;;7.90;99.90;;;;;;5093855;28;20048;-54
2023/12/31 05:52:39;;;;;;;3.60;1.25;;;7.90;99.90;;;;;;5092803;28;20109;-53
2023/12/31 05:55:05;;;;;;;3.87;1.50;;;7.90;99.90;;;;;;5094069;28;20433;-53
2023/12/31 05:57:31;;;;;;;4.03;1.40;;;7.90;99.90;;;;;;5093869;28;20058;-53
2023/12/31 05:59:56;;;;;;;3.17;1.33;;;7.90;99.90;;;;;;5093756;28;20507;-53
2023/12/31 06:02:22;;;;;;;3.10;1.40;;;8.00;99.90;;;;;;5093739;28;20066;-54
2023/12/31 06:04:48;;;;;;;5.10;1.37;;;7.90;99.90;;;;;;5093689;28;20105;-52
2023/12/31 06:07:13;;;;;;;4.47;1.50;;;8.00;99.90;;;;;;5093526;28;20131;-53
2023/12/31 06:09:39;;;;;;;4.23;1.40;;;8.00;99.90;;;;;;5093291;28;20514;-52
2023/12/31 06:12:05;;;;;;;2.93;1.37;;;8.00;99.90;;;;;;5093696;28;20048;-53
2023/12/31 06:14:30;;;;;;;3.43;1.27;;;8.00;99.90;;;;;;5093472;28;20083;-52
2023/12/31 06:16:56;;;;;;;3.07;1.17;;;8.00;99.90;;;;;;5093525;28;20059;-54
2023/12/31 06:19:22;;;;;;;5.00;1.43;;;8.00;99.90;;;;;;5093495;28;20040;-54
2023/12/31 06:21:47;;;;;;;3.70;1.27;;;8.00;99.90;;;;;;5093384;28;20073;-53
2023/12/31 06:24:13;;;;;;;3.80;1.33;;;8.00;99.90;;;;;;5093316;28;20051;-53
2023/12/31 06:26:39;;;;;;;4.33;1.20;;;8.00;99.90;;;;;;5093622;28;20048;-53
2023/12/31 06:29:04;;;;;;;5.90;1.10;;;8.00;99.90;;;;;;5093568;28;20063;-54
2023/12/31 06:31:30;;;;;;;2.47;1.00;;;8.00;99.90;;;;;;5093507;28;20048;-51
2023/12/31 06:33:56;;;;;;;2.80;1.10;;;8.00;99.90;;;;;;5093531;28;20462;-52
2023/12/31 06:36:21;;;;;;;2.90;1.07;;;8.00;99.90;;;;;;5093348;28;20044;-53
2023/12/31 06:38:47;;;;;;;2.97;1.20;;;8.00;99.90;;;;;;5093322;28;20044;-51
2023/12/31 06:41:12;;;;;;;3.77;1.10;;;8.00;99.90;;;;;;5092109;28;20084;-53
2023/12/31 06:43:38;;;;;;;2.53;1.20;;;8.00;99.90;;;;;;5093421;28;20195;-52
2023/12/31 06:46:05;;;;;;;4.15;1.52;;;8.00;99.90;;;;;;5094866;28;20530;-53
2023/12/31 06:48:30;;;;;;;3.25;1.30;;;8.00;99.90;;;;;;5096974;28;20070;-53
2023/12/31 06:50:56;;;;;;;3.30;1.60;;;8.00;99.90;;;;;;5097054;28;20048;-50
2023/12/31 06:53:22;;;;;;;3.53;1.40;;;8.00;99.90;;;;;;5096873;28;20051;-52
2023/12/31 06:55:48;;;;;;;4.27;1.20;;;8.00;99.90;;;;;;5095977;28;20051;-53
2023/12/31 06:58:14;;;;;;;2.77;1.13;;;8.10;99.90;;;;;;5097110;28;20051;-53
2023/12/31 07:00:40;;;;;;;3.10;1.20;;;8.10;99.90;;;;;;5097005;28;20056;-52
2023/12/31 07:03:06;;;;;;;3.83;1.27;;;8.10;99.90;;;;;;5097022;28;20047;-53
2023/12/31 07:05:32;;;;;;;2.35;0.98;;;8.10;99.90;;;;;;5096830;28;20391;-54
2023/12/31 07:07:58;;;;;;;3.37;1.43;;;8.10;99.90;;;;;;5096622;28;20036;-53
2023/12/31 07:10:23;;;;;;;2.80;1.13;;;8.10;99.90;;;;;;5097147;28;20390;-53
2023/12/31 07:12:49;;;;;;;2.73;1.17;;;8.10;99.90;;;;;;5096667;28;20048;-53
2023/12/31 07:15:16;;;;;;;4.45;1.25;;;8.10;99.90;;;;;;5096979;28;20054;-53
2023/12/31 07:17:42;;;;;;;2.72;0.98;;;8.10;99.90;;;;;;5096530;28;20071;-53
2023/12/31 07:20:08;;;;;;;4.43;1.40;;;8.10;99.90;;;;;;5096696;28;20458;-53
2023/12/31 07:22:33;;;;;;;3.17;1.35;;;8.10;99.90;;;;;;5096397;28;20040;-53
2023/12/31 07:25:02;;;;;;;3.70;1.40;;;8.10;99.90;;;;;;5096454;28;20380;-54
2023/12/31 07:27:29;;;;;;;2.40;1.00;;;8.10;99.90;;;;;;5095400;28;20138;-51
2023/12/31 07:29:54;;;;;;;3.63;1.30;;;8.10;99.90;;;;;;5096406;28;20108;-53
2023/12/31 07:32:20;;;;;;;2.70;1.20;;;8.10;99.90;;;;;;5095387;28;20051;-51
2023/12/31 07:34:46;;;;;;;3.70;1.30;;;8.10;99.90;;;;;;5096386;28;20043;-53
2023/12/31 07:37:11;;;;;;;2.23;1.13;;;8.20;99.90;;;;;;5096069;28;20075;-53
2023/12/31 07:39:41;;;;;;;4.97;1.40;;;8.20;99.90;;;;;;5095371;28;20125;-54
2023/12/31 07:42:07;;;;;;;2.92;1.27;;;8.20;99.90;;;;;;5096247;28;20048;-53
2023/12/31 07:44:32;;;;;;;4.37;1.70;;;8.20;99.90;;;;;;5096069;28;20051;-53
2023/12/31 07:46:59;;;;;;;4.20;1.27;;;8.20;99.90;;;;;;5096088;28;20070;-53
2023/12/31 07:49:25;;;;;;;3.28;1.10;;;8.20;99.90;;;;;;5095744;28;20048;-53
2023/12/31 07:51:51;;;;;;;2.63;1.10;;;8.20;99.90;;;;;;5095676;28;20547;-52
2023/12/31 07:54:16;;;;;;;3.27;1.23;;;8.20;99.90;;;;;;5096236;28;20048;-53
2023/12/31 07:56:42;;;;;;;5.40;1.43;;;8.20;99.90;;;;;;5095578;28;20048;-54
2023/12/31 07:59:08;;;;;;;2.93;1.33;;;8.30;99.90;;;;;;5096061;28;20110;-53
2023/12/31 08:01:34;;;;;;;4.37;1.23;;;8.30;99.90;;;;;;5094622;28;20088;-53
2023/12/31 08:04:00;;;;;;;4.30;1.10;;;8.30;99.90;;;;;;5095629;28;20285;-53
2023/12/31 08:06:28;;;;;;;5.23;1.80;;;8.30;99.90;;;;;;5095535;28;20050;-54
2023/12/31 08:08:54;;;;;;;5.05;1.30;;;8.40;99.90;;;;;;5095705;28;20127;-52
2023/12/31 08:11:21;;;;;;;2.87;1.23;;;8.40;99.90;;;;;;5095547;28;20078;-54
2023/12/31 08:13:47;;;;;;;;;;;8.40;99.90;;;;;;5095953;28;20456;-53
2023/12/31 08:16:13;;;;;;;4.80;1.67;;;8.40;99.90;;;;;;5095424;28;20003;-53
2023/12/31 08:18:39;;;;;;;2.70;1.10;;;8.40;99.90;;;;;;5095378;28;20087;-53
2023/12/31 08:21:05;;;;;;;3.03;1.27;;;8.40;99.90;;;;;;5094193;28;20055;-54
2023/12/31 08:23:30;;;;;;;2.88;1.17;;;8.50;99.90;;;;;;5095763;28;20056;-54
2023/12/31 08:25:56;;;;;;;2.87;1.30;;;8.50;99.90;;;;;;5095331;28;20384;-52
2023/12/31 08:28:22;;;;;;;3.30;1.30;;;8.50;99.90;;;;;;5095065;28;20062;-52
2023/12/31 08:30:48;;;;;;;2.77;1.20;;;8.50;99.90;;;;;;5095201;28;20398;-53
2023/12/31 08:33:14;;;;;;;3.67;1.20;;;8.50;99.90;;;;;;5094947;28;20055;-54
2023/12/31 08:35:41;;;;;;;3.23;1.10;;;8.50;99.90;;;;;;5094866;28;20398;-53
2023/12/31 08:38:07;;;;;;;3.63;1.40;;;8.50;99.90;;;;;;5095590;28;20044;-54
2023/12/31 08:40:33;;;;;;;4.03;1.70;;;8.40;99.90;;;;;;5095003;28;20044;-53
2023/12/31 08:42:58;;;;;;;3.40;1.30;;;8.40;99.90;;;;;;5094905;28;20522;-54
2023/12/31 08:45:24;;;;;;;2.70;1.20;;;8.40;99.90;;;;;;5094883;28;20141;-52
2023/12/31 08:47:52;;;;;;;2.93;0.93;;;8.40;99.90;;;;;;5094784;28;20409;-53
2023/12/31 08:50:18;;;;;;;3.03;1.15;;;8.50;99.90;;;;;;5094581;28;20181;-52
2023/12/31 08:52:45;;;;;;;3.90;1.10;;;8.40;99.90;;;;;;5094710;28;20083;-54
2023/12/31 08:55:12;;;;;;;4.40;1.27;;;8.50;99.90;;;;;;5094921;28;20301;-54
2023/12/31 08:57:43;;;;;;;4.05;1.17;;;8.50;99.90;;;;;;5094592;28;20048;-53
2023/12/31 09:00:09;;;;;;;2.35;1.10;;;8.50;99.90;;;;;;5094549;28;20044;-54
2023/12/31 09:02:35;;;;;;;3.90;1.20;;;8.50;99.90;;;;;;5094337;28;20036;-52
2023/12/31 09:05:01;;;;;;;2.43;1.07;;;8.50;99.90;;;;;;5094538;28;20077;-53
2023/12/31 09:07:27;;;;;;;3.07;1.20;;;8.50;99.90;;;;;;5094192;28;20297;-54
2023/12/31 09:09:52;;;;;;;2.97;1.23;;;8.50;99.90;;;;;;5093821;28;20123;-53
2023/12/31 09:12:18;;;;;;;3.20;0.97;;;8.50;99.90;;;;;;5094511;28;20325;-53
2023/12/31 09:14:44;;;;;;;3.27;1.10;;;8.50;99.90;;;;;;5094300;28;20047;-53
2023/12/31 09:17:10;;;;;;;3.00;1.27;;;8.60;99.90;;;;;;5094237;28;20769;-53
2023/12/31 09:19:37;;;;;;;3.40;1.17;;;8.60;99.90;;;;;;5094265;28;20475;-54
2023/12/31 09:22:03;;;;;;;3.47;1.02;;;8.60;99.90;;;;;;5094141;28;20047;-53
2023/12/31 09:24:30;;;;;;;4.63;1.57;;;8.60;99.90;;;;;;5094089;28;20086;-53
2023/12/31 09:26:56;;;;;;;;;;;8.60;99.90;;;;;;5093570;28;20056;-54
2023/12/31 09:29:21;;;;;;;2.67;1.08;;;8.60;99.90;;;;;;5094110;28;19920;-53
2023/12/31 09:31:47;;;;;;;1.80;0.93;;;8.60;99.90;;;;;;5093771;28;20408;-53
2023/12/31 09:34:13;;;;;;;2.37;1.10;;;8.70;99.90;;;;;;5093900;28;20044;-54
2023/12/31 09:36:38;;;;;;;6.80;3.07;;;8.70;99.90;;;;;;5094128;28;20051;-54
2023/12/31 09:39:04;;;;;;;2.73;1.00;;;8.70;99.90;;;;;;5092967;28;20328;-53
2023/12/31 09:41:31;;;;;;;3.93;1.10;;;8.80;99.90;;;;;;5093927;28;20365;-55
2023/12/31 09:43:57;;;;;;;3.40;1.05;;;8.80;99.90;;;;;;5093949;28;20150;-53
2023/12/31 09:46:30;;;;;;;2.77;1.20;;;8.80;99.90;;;;;;5093909;28;20515;-54
2023/12/31 09:48:57;;;;;;;2.33;0.98;;;8.80;99.90;;;;;;5094164;28;20048;-55
2023/12/31 09:51:23;;;;;;;3.17;1.20;;;8.80;99.90;;;;;;5094163;28;20087;-54
2023/12/31 09:53:52;;;;;;;3.67;1.17;;;8.80;99.90;;;;;;5093737;28;20110;-54
2023/12/31 09:56:21;;;;;;;3.45;1.27;;;8.80;99.90;;;;;;5093695;28;20074;-55
2023/12/31 09:58:50;;;;;;;3.53;1.10;;;8.80;99.90;;;;;;5092719;28;20052;-54
2023/12/31 10:01:16;;;;;;;2.72;1.38;;;8.80;99.90;;;;;;5093784;28;20063;-53
2023/12/31 10:03:44;;;;;;;2.88;1.10;;;8.80;99.90;;;;;;5093947;28;20047;-54
2023/12/31 10:06:10;;;;;;;2.60;1.00;;;8.80;99.90;;;;;;5093803;28;20448;-55
2023/12/31 10:08:38;;;;;;;;;;;8.90;99.90;;;;;;5093908;28;20040;-54
2023/12/31 10:11:04;;;;;;;4.23;1.53;;;8.90;99.90;;;;;;5093655;28;19927;-53
2023/12/31 10:13:31;;;;;;;3.03;1.35;;;8.90;99.90;;;;;;5093338;28;20286;-54
2023/12/31 10:15:57;;;;;;;3.80;1.42;;;8.90;99.90;;;;;;5093541;28;20504;-55
2023/12/31 10:18:25;;;;;;;3.53;1.30;;;8.90;99.90;;;;;;5093536;28;20048;-54
2023/12/31 10:20:52;;;;;;;3.45;1.27;;;8.90;99.90;;;;;;5096442;28;20478;-54
2023/12/31 10:23:18;;;;;;;4.55;1.48;;;8.90;99.90;;;;;;5097580;28;20087;-54
2023/12/31 10:25:44;;;;;;;3.25;1.30;;;8.90;99.90;;;;;;5097758;28;20048;-54
2023/12/31 10:28:10;;;;;;;3.80;1.38;;;8.90;99.90;;;;;;5097060;28;20044;-54
2023/12/31 10:30:39;;;;;;;3.10;1.20;;;8.90;99.90;;;;;;5097611;28;20118;-55
2023/12/31 10:33:09;;;;;;;3.95;1.63;;;8.90;99.90;;;;;;5097424;28;20047;-53
2023/12/31 10:35:36;;;;;;;3.45;1.27;;;8.90;99.90;;;;;;5097329;28;20087;-54
2023/12/31 10:38:04;;;;;;;4.30;1.77;;;9.00;99.90;;;;;;5097281;28;20089;-54
2023/12/31 10:40:30;;;;;;;6.20;1.40;;;9.00;99.90;;;;;;5097317;28;20490;-54
2023/12/31 10:42:56;;;;;;;5.40;1.95;;;9.00;99.90;;;;;;5097162;28;20044;-54
2023/12/31 10:45:22;;;;;;;2.83;1.23;;;9.00;99.90;;;;;;5097292;28;20056;-54
2023/12/31 10:47:54;;;;;;;5.13;1.63;;;9.10;99.90;;;;;;5096975;28;20425;-54
2023/12/31 10:50:24;;;;;;;3.70;1.60;;;9.10;99.90;;;;;;5097118;28;20052;-54
2023/12/31 10:52:55;;;;;;;4.40;1.58;;;9.10;99.90;;;;;;5097041;28;20048;-53
2023/12/31 10:55:21;;;;;;;3.33;1.50;;;9.10;99.90;;;;;;5096902;28;20044;-54
2023/12/31 10:57:47;;;;;;;3.37;1.40;;;9.20;99.90;;;;;;5097095;28;20044;-53
2023/12/31 11:00:15;;;;;;;4.65;1.60;;;9.20;99.90;;;;;;5097291;28;20059;-55
2023/12/31 11:02:42;;;;;;;3.88;1.90;;;9.20;99.90;;;;;;5096935;28;20406;-54
2023/12/31 11:05:09;;;;;;;3.30;1.42;;;9.20;99.90;;;;;;5096953;28;20043;-54
2023/12/31 11:07:35;;;;;;;4.10;1.58;;;9.20;99.90;;;;;;5096706;28;20158;-53
2023/12/31 11:10:02;;;;;;;4.35;2.50;;;9.30;99.90;;;;;;5096721;28;20506;-54
2023/12/31 11:12:28;;;;;;;3.30;1.33;;;9.30;99.90;;;;;;5096771;28;20083;-54
2023/12/31 11:15:11;;;;;;;3.60;1.38;;;9.30;99.90;;;;;;5096667;28;20048;-54
2023/12/31 11:18:04;;;;;;;3.80;1.30;;;9.30;99.90;;;;;;5095517;28;20154;-55
2023/12/31 11:21:08;;;;;;;3.72;1.23;;;9.40;99.90;;;;;;5096313;28;20525;-54
2023/12/31 11:23:55;;;;;;;5.10;1.92;;;9.40;99.90;;;;;;5067474;28;20056;-54
2023/12/31 11:26:20;;;;;;;4.30;1.35;;;9.40;99.90;;;;;;5096357;28;20044;-55
2023/12/31 11:28:48;;;;;;;4.27;1.40;;;9.30;99.90;;;;;;5095969;28;20047;-54
2023/12/31 11:31:14;;;;;;;3.58;1.60;;;9.30;99.90;;;;;;5095495;28;20048;-54
2023/12/31 11:33:40;;;;;;;4.20;1.47;;;9.30;99.90;;;;;;5096417;28;20114;-55
2023/12/31 11:36:11;;;;;;;4.22;1.73;;;9.30;99.90;;;;;;5096341;28;20127;-54
2023/12/31 11:38:57;;;;;;;3.25;1.33;;;9.30;99.90;;;;;;5096553;28;20119;-54
2023/12/31 11:41:24;;;;;;;5.13;1.92;;;9.20;99.90;;;;;;5096196;28;20043;-53
2023/12/31 11:43:52;;;;;;;3.95;1.40;;;9.20;99.90;;;;;;5096547;28;20101;-52
2023/12/31 11:46:33;;;;;;;4.05;1.35;;;9.20;99.90;;;;;;5096150;28;20052;-51
2023/12/31 11:48:59;;;;;;;3.30;1.65;;;9.20;99.90;;;;;;5094849;28;20055;-48
2023/12/31 11:51:29;;;;;;;4.40;1.85;;;9.20;99.90;;;;;;5095989;28;20048;-47
2023/12/31 11:53:58;;;;;;;5.13;1.90;;;9.10;99.90;;;;;;5095993;28;20048;-48
2023/12/31 11:56:26;;;;;;;3.85;1.38;;;9.10;99.90;;;;;;5095965;28;20432;-47
2023/12/31 11:58:53;;;;;;;3.15;1.30;;;9.00;99.90;;;;;;5095928;28;20119;-47
2023/12/31 12:01:19;;;;;;;3.40;1.08;;;9.00;99.90;;;;;;5095692;28;20491;-51
2023/12/31 12:03:45;;;;;;;3.37;0.80;;;8.90;99.90;;;;;;5095748;28;20047;-48
2023/12/31 12:06:11;;;;;;;2.63;0.67;;;8.90;99.90;;;;;;5095544;28;20040;-49
2023/12/31 12:08:38;;;;;;;3.57;0.90;;;8.80;99.90;;;;;;5095650;28;20321;-49
2023/12/31 12:11:04;;;;;;;1.98;0.60;;;8.70;99.90;;;;;;5094438;28;20399;-51
2023/12/31 12:13:30;;;;;;;1.93;0.60;;;8.70;99.90;;;;;;5095571;28;20052;-51
2023/12/31 12:15:57;;;;;;;1.10;0.40;;;8.60;99.90;;;;;;5095575;28;20430;-51
2023/12/31 12:18:24;;;;;;;2.00;0.30;;;8.60;99.90;;;;;;5095500;28;20040;-52
2023/12/31 12:20:50;;;;;;;1.52;0.30;;;8.60;99.90;;;;;;5095310;28;20091;-49
2023/12/31 12:23:20;;;;;;;0.77;0.20;;;8.50;99.90;;;;;;5095444;28;20044;-49
2023/12/31 12:25:47;;;;;;;0.88;0.20;;;8.50;99.90;;;;;;5095498;28;20047;-49
2023/12/31 12:28:14;;;;;;;0.60;0.20;;;8.50;99.90;;;;;;5095061;28;20101;-48
2023/12/31 12:30:43;;;;;;;0.63;0.28;;;8.40;99.90;;;;;;5095136;28;20055;-51
2023/12/31 12:33:09;;;;;;;0.47;0.20;;;8.40;99.90;;;;;;5094979;28;20084;-50
2023/12/31 12:35:39;;;;;;;1.52;0.30;;;8.40;99.90;;;;;;5095417;28;20404;-48
2023/12/31 12:38:06;;;;;;;0.77;0.30;;;8.40;99.90;;;;;;5095096;28;20043;-51
2023/12/31 12:40:32;;;;;;;1.15;0.40;;;8.40;99.90;;;;;;5094922;28;20066;-51
2023/12/31 12:42:59;;;;;;;1.20;0.40;;;8.40;99.90;;;;;;5093415;28;20395;-50
2023/12/31 12:45:26;;;;;;;2.05;0.60;;;8.40;99.90;;;;;;5094717;28;20079;-49
2023/12/31 12:47:51;;;;;;;1.73;0.70;;;8.50;99.90;;;;;;5094777;28;20051;-48
2023/12/31 12:50:17;;;;;;;1.73;0.50;;;8.60;99.90;;;;;;5094542;28;20044;-47
2023/12/31 12:52:43;;;;;;;1.47;0.60;;;8.60;99.90;;;;;;5077245;28;20124;-47
2023/12/31 12:55:08;;;;;;;1.73;0.60;;;8.70;99.90;;;;;;5093708;28;20044;-48